sensor_id;sensor_type;location;lat;lon;timestamp;P1;durP1;ratioP1;P2;durP2;ratioP2
7128;SDS011;3606;52.930;8.644;2023-11-19T00:02:08;10.87;;;8.27;;
7128;SDS011;3606;52.930;8.644;2023-11-19T00:04:36;9.93;;;8.63;;
7128;SDS011;3606;52.930;8.644;2023-11-19T00:07:04;9.73;;;8.47;;
7128;SDS011;3606;52.930;8.644;2023-11-19T00:09:31;11.87;;;9.00;;
7128;SDS011;3606;52.930;8.644;2023-11-19T00:11:58;11.70;;;9.10;;
7128;SDS011;3606;52.930;8.644;2023-11-19T00:14:25;10.87;;;9.33;;
7128;SDS011;3606;52.930;8.644;2023-11-19T00:16:51;11.97;;;9.63;;
7128;SDS011;3606;52.930;8.644;2023-11-19T00:19:17;13.10;;;9.93;;
7128;SDS011;3606;52.930;8.644;2023-11-19T00:21:42;12.87;;;9.83;;
7128;SDS011;3606;52.930;8.644;2023-11-19T00:24:08;13.20;;;9.83;;
7128;SDS011;3606;52.930;8.644;2023-11-19T00:26:34;12.63;;;10.27;;
7128;SDS011;3606;52.930;8.644;2023-11-19T00:29:00;12.83;;;10.83;;
7128;SDS011;3606;52.930;8.644;2023-11-19T00:31:26;13.13;;;11.03;;
7128;SDS011;3606;52.930;8.644;2023-11-19T00:33:52;12.77;;;10.97;;
7128;SDS011;3606;52.930;8.644;2023-11-19T00:36:18;15.30;;;11.63;;
7128;SDS011;3606;52.930;8.644;2023-11-19T00:38:44;16.03;;;11.63;;
7128;SDS011;3606;52.930;8.644;2023-11-19T00:41:10;13.80;;;11.67;;
7128;SDS011;3606;52.930;8.644;2023-11-19T00:43:35;13.00;;;11.33;;
7128;SDS011;3606;52.930;8.644;2023-11-19T00:46:01;13.37;;;10.70;;
7128;SDS011;3606;52.930;8.644;2023-11-19T00:48:28;13.53;;;10.90;;
7128;SDS011;3606;52.930;8.644;2023-11-19T00:50:53;14.23;;;11.77;;
7128;SDS011;3606;52.930;8.644;2023-11-19T00:53:19;15.50;;;11.70;;
7128;SDS011;3606;52.930;8.644;2023-11-19T00:55:44;15.13;;;11.73;;
7128;SDS011;3606;52.930;8.644;2023-11-19T00:58:10;13.60;;;11.53;;
7128;SDS011;3606;52.930;8.644;2023-11-19T01:00:36;16.87;;;11.30;;
7128;SDS011;3606;52.930;8.644;2023-11-19T01:03:01;13.83;;;11.63;;
7128;SDS011;3606;52.930;8.644;2023-11-19T01:05:27;15.63;;;11.93;;
7128;SDS011;3606;52.930;8.644;2023-11-19T01:07:53;15.70;;;12.27;;
7128;SDS011;3606;52.930;8.644;2023-11-19T01:10:19;16.97;;;12.67;;
7128;SDS011;3606;52.930;8.644;2023-11-19T01:12:45;13.37;;;11.23;;
7128;SDS011;3606;52.930;8.644;2023-11-19T01:15:11;13.93;;;11.97;;
7128;SDS011;3606;52.930;8.644;2023-11-19T01:17:38;14.50;;;11.97;;
7128;SDS011;3606;52.930;8.644;2023-11-19T01:20:03;13.33;;;11.33;;
7128;SDS011;3606;52.930;8.644;2023-11-19T01:22:32;13.27;;;11.70;;
7128;SDS011;3606;52.930;8.644;2023-11-19T01:24:58;13.73;;;11.90;;
7128;SDS011;3606;52.930;8.644;2023-11-19T01:27:23;14.73;;;12.23;;
7128;SDS011;3606;52.930;8.644;2023-11-19T01:29:49;13.07;;;11.57;;
7128;SDS011;3606;52.930;8.644;2023-11-19T01:32:15;14.50;;;11.77;;
7128;SDS011;3606;52.930;8.644;2023-11-19T01:34:41;14.50;;;11.63;;
7128;SDS011;3606;52.930;8.644;2023-11-19T01:37:06;14.63;;;12.00;;
7128;SDS011;3606;52.930;8.644;2023-11-19T01:39:34;15.57;;;12.07;;
7128;SDS011;3606;52.930;8.644;2023-11-19T01:41:59;14.67;;;12.77;;
7128;SDS011;3606;52.930;8.644;2023-11-19T01:44:25;17.20;;;12.23;;
7128;SDS011;3606;52.930;8.644;2023-11-19T01:46:51;15.17;;;12.07;;
7128;SDS011;3606;52.930;8.644;2023-11-19T01:49:17;17.93;;;12.63;;
7128;SDS011;3606;52.930;8.644;2023-11-19T01:51:44;15.07;;;13.07;;
7128;SDS011;3606;52.930;8.644;2023-11-19T01:54:10;18.67;;;12.53;;
7128;SDS011;3606;52.930;8.644;2023-11-19T01:56:38;14.20;;;12.70;;
7128;SDS011;3606;52.930;8.644;2023-11-19T01:59:05;16.13;;;12.43;;
7128;SDS011;3606;52.930;8.644;2023-11-19T02:01:32;17.77;;;12.97;;
7128;SDS011;3606;52.930;8.644;2023-11-19T02:04:02;19.17;;;13.07;;
7128;SDS011;3606;52.930;8.644;2023-11-19T02:06:29;18.53;;;13.27;;
7128;SDS011;3606;52.930;8.644;2023-11-19T02:08:58;15.23;;;12.67;;
7128;SDS011;3606;52.930;8.644;2023-11-19T02:11:23;16.53;;;13.43;;
7128;SDS011;3606;52.930;8.644;2023-11-19T02:13:54;17.37;;;13.93;;
7128;SDS011;3606;52.930;8.644;2023-11-19T02:16:20;19.67;;;14.10;;
7128;SDS011;3606;52.930;8.644;2023-11-19T02:18:46;21.47;;;13.87;;
7128;SDS011;3606;52.930;8.644;2023-11-19T02:21:13;17.30;;;13.50;;
7128;SDS011;3606;52.930;8.644;2023-11-19T02:23:40;22.33;;;15.50;;
7128;SDS011;3606;52.930;8.644;2023-11-19T02:28:39;20.93;;;14.87;;
7128;SDS011;3606;52.930;8.644;2023-11-19T02:31:08;20.33;;;14.83;;
7128;SDS011;3606;52.930;8.644;2023-11-19T02:33:39;19.07;;;14.50;;
7128;SDS011;3606;52.930;8.644;2023-11-19T02:36:05;18.77;;;14.27;;
7128;SDS011;3606;52.930;8.644;2023-11-19T02:38:32;19.23;;;13.63;;
7128;SDS011;3606;52.930;8.644;2023-11-19T02:40:58;18.20;;;14.10;;
7128;SDS011;3606;52.930;8.644;2023-11-19T02:43:23;18.23;;;14.17;;
7128;SDS011;3606;52.930;8.644;2023-11-19T02:45:49;16.87;;;14.13;;
7128;SDS011;3606;52.930;8.644;2023-11-19T02:48:15;18.77;;;13.97;;
7128;SDS011;3606;52.930;8.644;2023-11-19T02:50:41;18.30;;;13.73;;
7128;SDS011;3606;52.930;8.644;2023-11-19T02:53:07;16.33;;;13.87;;
7128;SDS011;3606;52.930;8.644;2023-11-19T02:55:33;18.20;;;13.27;;
7128;SDS011;3606;52.930;8.644;2023-11-19T02:58:03;19.77;;;13.77;;
7128;SDS011;3606;52.930;8.644;2023-11-19T03:00:44;20.40;;;14.90;;
7128;SDS011;3606;52.930;8.644;2023-11-19T03:03:19;18.13;;;14.13;;
7128;SDS011;3606;52.930;8.644;2023-11-19T03:05:51;18.73;;;14.00;;
7128;SDS011;3606;52.930;8.644;2023-11-19T03:08:16;19.60;;;15.67;;
7128;SDS011;3606;52.930;8.644;2023-11-19T03:10:42;20.33;;;15.17;;
7128;SDS011;3606;52.930;8.644;2023-11-19T03:13:11;25.47;;;16.17;;
7128;SDS011;3606;52.930;8.644;2023-11-19T03:15:41;23.73;;;15.47;;
7128;SDS011;3606;52.930;8.644;2023-11-19T03:18:07;22.60;;;16.00;;
7128;SDS011;3606;52.930;8.644;2023-11-19T03:20:33;23.80;;;15.47;;
7128;SDS011;3606;52.930;8.644;2023-11-19T03:22:59;21.90;;;15.30;;
7128;SDS011;3606;52.930;8.644;2023-11-19T03:25:26;28.43;;;16.03;;
7128;SDS011;3606;52.930;8.644;2023-11-19T03:27:58;26.30;;;16.53;;
7128;SDS011;3606;52.930;8.644;2023-11-19T03:30:24;19.30;;;15.10;;
7128;SDS011;3606;52.930;8.644;2023-11-19T03:32:49;24.83;;;15.73;;
7128;SDS011;3606;52.930;8.644;2023-11-19T03:35:15;25.10;;;15.23;;
7128;SDS011;3606;52.930;8.644;2023-11-19T03:37:41;23.90;;;15.77;;
7128;SDS011;3606;52.930;8.644;2023-11-19T03:40:06;22.43;;;16.17;;
7128;SDS011;3606;52.930;8.644;2023-11-19T03:42:32;22.53;;;15.20;;
7128;SDS011;3606;52.930;8.644;2023-11-19T03:44:58;24.23;;;16.00;;
7128;SDS011;3606;52.930;8.644;2023-11-19T03:47:24;22.77;;;15.77;;
7128;SDS011;3606;52.930;8.644;2023-11-19T03:49:50;21.60;;;15.43;;
7128;SDS011;3606;52.930;8.644;2023-11-19T03:52:16;23.57;;;15.40;;
7128;SDS011;3606;52.930;8.644;2023-11-19T03:54:43;26.17;;;15.60;;
7128;SDS011;3606;52.930;8.644;2023-11-19T03:57:09;26.67;;;15.33;;
7128;SDS011;3606;52.930;8.644;2023-11-19T03:59:37;26.47;;;15.53;;
7128;SDS011;3606;52.930;8.644;2023-11-19T04:02:03;21.60;;;15.77;;
7128;SDS011;3606;52.930;8.644;2023-11-19T04:04:28;25.47;;;14.73;;
7128;SDS011;3606;52.930;8.644;2023-11-19T04:06:54;28.30;;;15.67;;
7128;SDS011;3606;52.930;8.644;2023-11-19T04:09:20;24.10;;;15.23;;
7128;SDS011;3606;52.930;8.644;2023-11-19T04:11:46;20.03;;;14.33;;
7128;SDS011;3606;52.930;8.644;2023-11-19T04:14:12;23.80;;;15.13;;
7128;SDS011;3606;52.930;8.644;2023-11-19T04:16:38;22.00;;;14.97;;
7128;SDS011;3606;52.930;8.644;2023-11-19T04:19:05;20.47;;;14.40;;
7128;SDS011;3606;52.930;8.644;2023-11-19T04:21:31;24.40;;;14.40;;
7128;SDS011;3606;52.930;8.644;2023-11-19T04:23:58;25.07;;;14.77;;
7128;SDS011;3606;52.930;8.644;2023-11-19T04:26:23;21.43;;;14.03;;
7128;SDS011;3606;52.930;8.644;2023-11-19T04:28:49;30.53;;;14.37;;
7128;SDS011;3606;52.930;8.644;2023-11-19T04:31:15;22.93;;;14.07;;
7128;SDS011;3606;52.930;8.644;2023-11-19T04:33:44;23.00;;;14.03;;
7128;SDS011;3606;52.930;8.644;2023-11-19T04:36:10;25.17;;;13.50;;
7128;SDS011;3606;52.930;8.644;2023-11-19T04:38:35;27.27;;;14.77;;
7128;SDS011;3606;52.930;8.644;2023-11-19T04:41:03;25.87;;;13.80;;
7128;SDS011;3606;52.930;8.644;2023-11-19T04:43:30;20.97;;;12.50;;
7128;SDS011;3606;52.930;8.644;2023-11-19T04:45:56;26.60;;;13.43;;
7128;SDS011;3606;52.930;8.644;2023-11-19T04:48:22;22.73;;;13.47;;
7128;SDS011;3606;52.930;8.644;2023-11-19T04:50:48;27.57;;;13.57;;
7128;SDS011;3606;52.930;8.644;2023-11-19T04:53:17;24.60;;;13.40;;
7128;SDS011;3606;52.930;8.644;2023-11-19T04:55:43;26.87;;;13.20;;
7128;SDS011;3606;52.930;8.644;2023-11-19T04:58:23;25.20;;;12.93;;
7128;SDS011;3606;52.930;8.644;2023-11-19T05:00:49;24.83;;;11.90;;
7128;SDS011;3606;52.930;8.644;2023-11-19T05:03:14;27.07;;;12.63;;
7128;SDS011;3606;52.930;8.644;2023-11-19T05:05:40;25.20;;;12.37;;
7128;SDS011;3606;52.930;8.644;2023-11-19T05:08:06;25.43;;;12.23;;
7128;SDS011;3606;52.930;8.644;2023-11-19T05:10:31;26.40;;;12.33;;
7128;SDS011;3606;52.930;8.644;2023-11-19T05:12:57;20.97;;;11.77;;
7128;SDS011;3606;52.930;8.644;2023-11-19T05:15:22;27.90;;;12.47;;
7128;SDS011;3606;52.930;8.644;2023-11-19T05:17:49;30.07;;;12.20;;
7128;SDS011;3606;52.930;8.644;2023-11-19T05:20:14;25.63;;;12.03;;
7128;SDS011;3606;52.930;8.644;2023-11-19T05:22:40;28.13;;;11.07;;
7128;SDS011;3606;52.930;8.644;2023-11-19T05:25:06;28.33;;;10.30;;
7128;SDS011;3606;52.930;8.644;2023-11-19T05:27:34;22.03;;;10.37;;
7128;SDS011;3606;52.930;8.644;2023-11-19T05:30:00;30.60;;;10.23;;
7128;SDS011;3606;52.930;8.644;2023-11-19T05:32:27;25.83;;;10.07;;
7128;SDS011;3606;52.930;8.644;2023-11-19T05:34:52;19.43;;;8.57;;
7128;SDS011;3606;52.930;8.644;2023-11-19T05:37:18;23.67;;;9.00;;
7128;SDS011;3606;52.930;8.644;2023-11-19T05:39:44;33.20;;;9.67;;
7128;SDS011;3606;52.930;8.644;2023-11-19T05:42:10;25.50;;;8.63;;
7128;SDS011;3606;52.930;8.644;2023-11-19T05:44:35;23.33;;;8.70;;
7128;SDS011;3606;52.930;8.644;2023-11-19T05:47:01;26.27;;;8.20;;
7128;SDS011;3606;52.930;8.644;2023-11-19T05:49:27;17.23;;;7.23;;
7128;SDS011;3606;52.930;8.644;2023-11-19T05:51:53;30.73;;;8.10;;
7128;SDS011;3606;52.930;8.644;2023-11-19T05:54:20;28.33;;;7.90;;
7128;SDS011;3606;52.930;8.644;2023-11-19T05:56:49;22.80;;;6.07;;
7128;SDS011;3606;52.930;8.644;2023-11-19T05:59:15;28.70;;;6.93;;
7128;SDS011;3606;52.930;8.644;2023-11-19T06:01:43;28.47;;;7.07;;
7128;SDS011;3606;52.930;8.644;2023-11-19T06:04:09;25.03;;;7.07;;
7128;SDS011;3606;52.930;8.644;2023-11-19T06:06:35;25.50;;;6.80;;
7128;SDS011;3606;52.930;8.644;2023-11-19T06:09:01;31.23;;;7.20;;
7128;SDS011;3606;52.930;8.644;2023-11-19T06:11:27;26.73;;;6.50;;
7128;SDS011;3606;52.930;8.644;2023-11-19T06:13:53;25.73;;;6.90;;
7128;SDS011;3606;52.930;8.644;2023-11-19T06:16:18;26.37;;;6.03;;
7128;SDS011;3606;52.930;8.644;2023-11-19T06:18:44;26.37;;;6.60;;
7128;SDS011;3606;52.930;8.644;2023-11-19T06:21:10;25.10;;;6.10;;
7128;SDS011;3606;52.930;8.644;2023-11-19T06:23:36;23.00;;;6.50;;
7128;SDS011;3606;52.930;8.644;2023-11-19T06:26:02;25.27;;;6.40;;
7128;SDS011;3606;52.930;8.644;2023-11-19T06:28:28;29.43;;;7.10;;
7128;SDS011;3606;52.930;8.644;2023-11-19T06:30:53;29.53;;;6.07;;
7128;SDS011;3606;52.930;8.644;2023-11-19T06:33:19;24.63;;;5.67;;
7128;SDS011;3606;52.930;8.644;2023-11-19T06:35:45;23.23;;;6.17;;
7128;SDS011;3606;52.930;8.644;2023-11-19T06:38:10;21.27;;;6.23;;
7128;SDS011;3606;52.930;8.644;2023-11-19T06:40:36;20.53;;;5.37;;
7128;SDS011;3606;52.930;8.644;2023-11-19T06:43:02;23.23;;;6.03;;
7128;SDS011;3606;52.930;8.644;2023-11-19T06:45:33;23.60;;;5.60;;
7128;SDS011;3606;52.930;8.644;2023-11-19T06:48:02;24.67;;;5.73;;
7128;SDS011;3606;52.930;8.644;2023-11-19T06:50:31;27.70;;;7.27;;
7128;SDS011;3606;52.930;8.644;2023-11-19T06:52:57;23.30;;;5.87;;
7128;SDS011;3606;52.930;8.644;2023-11-19T06:55:23;20.57;;;5.87;;
7128;SDS011;3606;52.930;8.644;2023-11-19T06:57:48;28.13;;;6.60;;
7128;SDS011;3606;52.930;8.644;2023-11-19T07:00:14;21.43;;;6.37;;
7128;SDS011;3606;52.930;8.644;2023-11-19T07:02:40;32.37;;;6.00;;
7128;SDS011;3606;52.930;8.644;2023-11-19T07:05:06;31.87;;;6.10;;
7128;SDS011;3606;52.930;8.644;2023-11-19T07:07:33;32.57;;;5.73;;
7128;SDS011;3606;52.930;8.644;2023-11-19T07:09:59;31.30;;;6.40;;
7128;SDS011;3606;52.930;8.644;2023-11-19T07:12:24;25.67;;;6.70;;
7128;SDS011;3606;52.930;8.644;2023-11-19T07:14:51;27.17;;;6.33;;
7128;SDS011;3606;52.930;8.644;2023-11-19T07:17:18;30.43;;;5.87;;
7128;SDS011;3606;52.930;8.644;2023-11-19T07:19:45;27.40;;;6.23;;
7128;SDS011;3606;52.930;8.644;2023-11-19T07:22:11;27.67;;;6.63;;
7128;SDS011;3606;52.930;8.644;2023-11-19T07:24:38;24.43;;;7.07;;
7128;SDS011;3606;52.930;8.644;2023-11-19T07:27:05;49.67;;;18.27;;
7128;SDS011;3606;52.930;8.644;2023-11-19T07:29:31;32.67;;;7.27;;
7128;SDS011;3606;52.930;8.644;2023-11-19T07:31:57;30.73;;;7.00;;
7128;SDS011;3606;52.930;8.644;2023-11-19T07:34:23;35.97;;;11.90;;
7128;SDS011;3606;52.930;8.644;2023-11-19T07:36:49;33.27;;;11.67;;
7128;SDS011;3606;52.930;8.644;2023-11-19T07:39:15;32.43;;;10.00;;
7128;SDS011;3606;52.930;8.644;2023-11-19T07:41:41;43.47;;;10.60;;
7128;SDS011;3606;52.930;8.644;2023-11-19T07:44:06;24.37;;;10.47;;
7128;SDS011;3606;52.930;8.644;2023-11-19T07:46:32;34.97;;;7.17;;
7128;SDS011;3606;52.930;8.644;2023-11-19T07:48:58;27.90;;;7.50;;
7128;SDS011;3606;52.930;8.644;2023-11-19T07:51:23;34.70;;;7.17;;
7128;SDS011;3606;52.930;8.644;2023-11-19T07:53:49;25.03;;;5.70;;
7128;SDS011;3606;52.930;8.644;2023-11-19T07:56:14;25.37;;;5.77;;
7128;SDS011;3606;52.930;8.644;2023-11-19T07:58:40;21.43;;;5.13;;
7128;SDS011;3606;52.930;8.644;2023-11-19T08:01:06;20.60;;;5.30;;
7128;SDS011;3606;52.930;8.644;2023-11-19T08:03:32;18.77;;;5.27;;
7128;SDS011;3606;52.930;8.644;2023-11-19T08:06:00;32.00;;;6.53;;
7128;SDS011;3606;52.930;8.644;2023-11-19T08:08:26;32.80;;;6.63;;
7128;SDS011;3606;52.930;8.644;2023-11-19T08:10:54;18.73;;;5.40;;
7128;SDS011;3606;52.930;8.644;2023-11-19T08:13:21;28.30;;;5.90;;
7128;SDS011;3606;52.930;8.644;2023-11-19T08:15:48;25.00;;;5.70;;
7128;SDS011;3606;52.930;8.644;2023-11-19T08:18:13;19.30;;;5.67;;
7128;SDS011;3606;52.930;8.644;2023-11-19T08:20:39;24.27;;;5.40;;
7128;SDS011;3606;52.930;8.644;2023-11-19T08:23:06;23.97;;;5.70;;
7128;SDS011;3606;52.930;8.644;2023-11-19T08:25:32;22.53;;;6.07;;
7128;SDS011;3606;52.930;8.644;2023-11-19T08:27:58;20.43;;;5.07;;
7128;SDS011;3606;52.930;8.644;2023-11-19T08:30:25;21.17;;;4.70;;
7128;SDS011;3606;52.930;8.644;2023-11-19T08:32:50;22.97;;;4.97;;
7128;SDS011;3606;52.930;8.644;2023-11-19T08:35:16;24.13;;;5.43;;
7128;SDS011;3606;52.930;8.644;2023-11-19T08:37:41;22.77;;;5.20;;
7128;SDS011;3606;52.930;8.644;2023-11-19T08:40:08;25.87;;;6.17;;
7128;SDS011;3606;52.930;8.644;2023-11-19T08:42:34;29.80;;;5.60;;
7128;SDS011;3606;52.930;8.644;2023-11-19T08:45:00;29.13;;;6.27;;
7128;SDS011;3606;52.930;8.644;2023-11-19T08:47:25;19.60;;;4.93;;
7128;SDS011;3606;52.930;8.644;2023-11-19T08:49:51;27.37;;;5.63;;
7128;SDS011;3606;52.930;8.644;2023-11-19T08:52:20;21.07;;;6.27;;
7128;SDS011;3606;52.930;8.644;2023-11-19T08:54:45;23.37;;;7.17;;
7128;SDS011;3606;52.930;8.644;2023-11-19T08:57:11;36.80;;;6.57;;
7128;SDS011;3606;52.930;8.644;2023-11-19T08:59:36;34.50;;;7.23;;
7128;SDS011;3606;52.930;8.644;2023-11-19T09:02:05;33.83;;;6.97;;
7128;SDS011;3606;52.930;8.644;2023-11-19T09:04:31;25.33;;;7.07;;
7128;SDS011;3606;52.930;8.644;2023-11-19T09:06:57;28.67;;;7.13;;
7128;SDS011;3606;52.930;8.644;2023-11-19T09:09:23;26.50;;;6.70;;
7128;SDS011;3606;52.930;8.644;2023-11-19T09:11:49;37.67;;;6.97;;
7128;SDS011;3606;52.930;8.644;2023-11-19T09:14:14;37.67;;;7.07;;
7128;SDS011;3606;52.930;8.644;2023-11-19T09:16:40;25.30;;;6.63;;
7128;SDS011;3606;52.930;8.644;2023-11-19T09:19:06;31.80;;;6.47;;
7128;SDS011;3606;52.930;8.644;2023-11-19T09:21:31;31.93;;;7.53;;
7128;SDS011;3606;52.930;8.644;2023-11-19T09:23:59;32.20;;;6.93;;
7128;SDS011;3606;52.930;8.644;2023-11-19T09:26:25;32.87;;;6.93;;
7128;SDS011;3606;52.930;8.644;2023-11-19T09:28:50;34.23;;;7.03;;
7128;SDS011;3606;52.930;8.644;2023-11-19T09:31:16;26.17;;;6.33;;
7128;SDS011;3606;52.930;8.644;2023-11-19T09:33:43;34.10;;;6.30;;
7128;SDS011;3606;52.930;8.644;2023-11-19T09:36:09;35.90;;;6.87;;
7128;SDS011;3606;52.930;8.644;2023-11-19T09:38:36;28.13;;;6.90;;
7128;SDS011;3606;52.930;8.644;2023-11-19T09:41:06;34.27;;;6.67;;
7128;SDS011;3606;52.930;8.644;2023-11-19T09:43:37;35.60;;;6.83;;
7128;SDS011;3606;52.930;8.644;2023-11-19T09:46:05;34.77;;;11.03;;
7128;SDS011;3606;52.930;8.644;2023-11-19T09:48:33;36.20;;;9.37;;
7128;SDS011;3606;52.930;8.644;2023-11-19T09:51:00;33.13;;;7.00;;
7128;SDS011;3606;52.930;8.644;2023-11-19T09:53:27;23.97;;;6.60;;
7128;SDS011;3606;52.930;8.644;2023-11-19T09:55:53;31.53;;;7.07;;
7128;SDS011;3606;52.930;8.644;2023-11-19T09:58:20;37.50;;;7.00;;
7128;SDS011;3606;52.930;8.644;2023-11-19T10:00:45;26.83;;;7.07;;
7128;SDS011;3606;52.930;8.644;2023-11-19T10:03:12;28.77;;;6.47;;
7128;SDS011;3606;52.930;8.644;2023-11-19T10:05:39;32.90;;;7.70;;
7128;SDS011;3606;52.930;8.644;2023-11-19T10:08:05;30.17;;;6.03;;
7128;SDS011;3606;52.930;8.644;2023-11-19T10:10:33;28.27;;;6.53;;
7128;SDS011;3606;52.930;8.644;2023-11-19T10:12:59;30.97;;;6.83;;
7128;SDS011;3606;52.930;8.644;2023-11-19T10:15:25;25.23;;;5.63;;
7128;SDS011;3606;52.930;8.644;2023-11-19T10:17:52;18.77;;;5.53;;
7128;SDS011;3606;52.930;8.644;2023-11-19T10:20:21;18.60;;;4.83;;
7128;SDS011;3606;52.930;8.644;2023-11-19T10:22:47;23.60;;;5.30;;
7128;SDS011;3606;52.930;8.644;2023-11-19T10:25:21;21.97;;;5.33;;
7128;SDS011;3606;52.930;8.644;2023-11-19T10:27:48;27.40;;;5.60;;
7128;SDS011;3606;52.930;8.644;2023-11-19T10:30:21;19.50;;;5.43;;
7128;SDS011;3606;52.930;8.644;2023-11-19T10:35:57;20.47;;;5.33;;
7128;SDS011;3606;52.930;8.644;2023-11-19T10:38:24;23.53;;;5.40;;
7128;SDS011;3606;52.930;8.644;2023-11-19T10:40:51;23.27;;;5.80;;
7128;SDS011;3606;52.930;8.644;2023-11-19T10:43:18;29.90;;;6.73;;
7128;SDS011;3606;52.930;8.644;2023-11-19T10:45:44;25.87;;;5.13;;
7128;SDS011;3606;52.930;8.644;2023-11-19T10:48:10;28.87;;;6.03;;
7128;SDS011;3606;52.930;8.644;2023-11-19T10:50:37;31.20;;;6.43;;
7128;SDS011;3606;52.930;8.644;2023-11-19T10:53:04;32.10;;;6.30;;
7128;SDS011;3606;52.930;8.644;2023-11-19T10:55:35;30.07;;;6.60;;
7128;SDS011;3606;52.930;8.644;2023-11-19T10:58:04;21.10;;;6.50;;
7128;SDS011;3606;52.930;8.644;2023-11-19T11:00:34;27.00;;;6.63;;
7128;SDS011;3606;52.930;8.644;2023-11-19T11:03:16;30.27;;;6.93;;
7128;SDS011;3606;52.930;8.644;2023-11-19T11:05:43;33.40;;;6.20;;
7128;SDS011;3606;52.930;8.644;2023-11-19T11:08:12;36.00;;;6.93;;
7128;SDS011;3606;52.930;8.644;2023-11-19T11:13:13;26.80;;;6.73;;
7128;SDS011;3606;52.930;8.644;2023-11-19T11:15:39;28.33;;;6.30;;
7128;SDS011;3606;52.930;8.644;2023-11-19T11:18:07;21.37;;;5.37;;
7128;SDS011;3606;52.930;8.644;2023-11-19T11:20:34;29.40;;;6.40;;
7128;SDS011;3606;52.930;8.644;2023-11-19T11:28:42;23.50;;;6.47;;
7128;SDS011;3606;52.930;8.644;2023-11-19T11:31:29;30.13;;;6.80;;
7128;SDS011;3606;52.930;8.644;2023-11-19T11:36:55;27.23;;;6.47;;
7128;SDS011;3606;52.930;8.644;2023-11-19T11:39:31;29.00;;;6.43;;
7128;SDS011;3606;52.930;8.644;2023-11-19T11:50:11;24.80;;;6.50;;
7128;SDS011;3606;52.930;8.644;2023-11-19T11:55:25;31.10;;;6.00;;
7128;SDS011;3606;52.930;8.644;2023-11-19T11:57:51;27.67;;;7.17;;
7128;SDS011;3606;52.930;8.644;2023-11-19T12:02:55;28.93;;;6.07;;
7128;SDS011;3606;52.930;8.644;2023-11-19T12:05:21;25.73;;;6.67;;
7128;SDS011;3606;52.930;8.644;2023-11-19T12:07:57;28.97;;;6.97;;
7128;SDS011;3606;52.930;8.644;2023-11-19T12:10:26;38.07;;;7.30;;
7128;SDS011;3606;52.930;8.644;2023-11-19T12:12:59;26.57;;;7.10;;
7128;SDS011;3606;52.930;8.644;2023-11-19T12:15:26;30.10;;;7.20;;
7128;SDS011;3606;52.930;8.644;2023-11-19T12:17:52;34.87;;;7.20;;
7128;SDS011;3606;52.930;8.644;2023-11-19T12:20:22;30.80;;;6.90;;
7128;SDS011;3606;52.930;8.644;2023-11-19T12:22:49;30.10;;;6.70;;
7128;SDS011;3606;52.930;8.644;2023-11-19T12:25:16;30.23;;;6.53;;
7128;SDS011;3606;52.930;8.644;2023-11-19T12:27:49;30.40;;;6.47;;
7128;SDS011;3606;52.930;8.644;2023-11-19T12:30:22;29.73;;;6.97;;
7128;SDS011;3606;52.930;8.644;2023-11-19T12:32:51;29.33;;;7.00;;
7128;SDS011;3606;52.930;8.644;2023-11-19T12:35:21;31.90;;;7.73;;
7128;SDS011;3606;52.930;8.644;2023-11-19T12:37:49;22.27;;;6.83;;
7128;SDS011;3606;52.930;8.644;2023-11-19T12:40:19;28.07;;;6.17;;
7128;SDS011;3606;52.930;8.644;2023-11-19T12:42:49;21.57;;;6.43;;
7128;SDS011;3606;52.930;8.644;2023-11-19T12:45:15;19.53;;;5.87;;
7128;SDS011;3606;52.930;8.644;2023-11-19T12:47:42;28.10;;;6.63;;
7128;SDS011;3606;52.930;8.644;2023-11-19T12:50:09;31.80;;;6.00;;
7128;SDS011;3606;52.930;8.644;2023-11-19T12:52:35;25.57;;;5.87;;
7128;SDS011;3606;52.930;8.644;2023-11-19T12:55:02;29.67;;;6.17;;
7128;SDS011;3606;52.930;8.644;2023-11-19T13:00:05;18.60;;;4.53;;
7128;SDS011;3606;52.930;8.644;2023-11-19T13:05:46;14.63;;;4.07;;
7128;SDS011;3606;52.930;8.644;2023-11-19T13:08:06;16.07;;;4.27;;
7128;SDS011;3606;52.930;8.644;2023-11-19T13:10:34;20.67;;;4.97;;
7128;SDS011;3606;52.930;8.644;2023-11-19T13:13:16;19.90;;;4.90;;
7128;SDS011;3606;52.930;8.644;2023-11-19T13:15:42;17.93;;;5.43;;
7128;SDS011;3606;52.930;8.644;2023-11-19T13:18:09;20.53;;;4.77;;
7128;SDS011;3606;52.930;8.644;2023-11-19T13:20:35;19.00;;;4.67;;
7128;SDS011;3606;52.930;8.644;2023-11-19T13:23:01;18.90;;;4.70;;
7128;SDS011;3606;52.930;8.644;2023-11-19T13:25:29;18.03;;;5.07;;
7128;SDS011;3606;52.930;8.644;2023-11-19T13:27:55;17.33;;;4.83;;
7128;SDS011;3606;52.930;8.644;2023-11-19T13:30:21;14.53;;;4.83;;
7128;SDS011;3606;52.930;8.644;2023-11-19T13:32:48;16.40;;;5.43;;
7128;SDS011;3606;52.930;8.644;2023-11-19T13:35:14;28.13;;;5.87;;
7128;SDS011;3606;52.930;8.644;2023-11-19T13:37:40;17.90;;;4.93;;
7128;SDS011;3606;52.930;8.644;2023-11-19T13:40:06;21.47;;;5.70;;
7128;SDS011;3606;52.930;8.644;2023-11-19T13:42:32;21.23;;;5.97;;
7128;SDS011;3606;52.930;8.644;2023-11-19T13:44:58;26.60;;;6.17;;
7128;SDS011;3606;52.930;8.644;2023-11-19T13:47:23;23.37;;;6.13;;
7128;SDS011;3606;52.930;8.644;2023-11-19T13:49:49;23.83;;;5.97;;
7128;SDS011;3606;52.930;8.644;2023-11-19T13:52:15;22.93;;;5.20;;
7128;SDS011;3606;52.930;8.644;2023-11-19T13:54:40;25.33;;;4.80;;
7128;SDS011;3606;52.930;8.644;2023-11-19T13:57:06;21.40;;;4.77;;
7128;SDS011;3606;52.930;8.644;2023-11-19T13:59:31;18.60;;;4.97;;
7128;SDS011;3606;52.930;8.644;2023-11-19T14:01:57;21.33;;;4.37;;
7128;SDS011;3606;52.930;8.644;2023-11-19T14:04:23;17.37;;;4.67;;
7128;SDS011;3606;52.930;8.644;2023-11-19T14:06:49;14.60;;;5.17;;
7128;SDS011;3606;52.930;8.644;2023-11-19T14:09:15;13.27;;;3.73;;
7128;SDS011;3606;52.930;8.644;2023-11-19T14:11:41;14.97;;;3.63;;
7128;SDS011;3606;52.930;8.644;2023-11-19T14:14:07;14.10;;;4.33;;
7128;SDS011;3606;52.930;8.644;2023-11-19T14:16:33;12.43;;;3.70;;
7128;SDS011;3606;52.930;8.644;2023-11-19T14:18:59;10.57;;;3.63;;
7128;SDS011;3606;52.930;8.644;2023-11-19T14:21:25;15.93;;;3.90;;
7128;SDS011;3606;52.930;8.644;2023-11-19T14:23:51;12.10;;;3.83;;
7128;SDS011;3606;52.930;8.644;2023-11-19T14:26:17;8.07;;;2.97;;
7128;SDS011;3606;52.930;8.644;2023-11-19T14:28:43;12.60;;;3.67;;
7128;SDS011;3606;52.930;8.644;2023-11-19T14:31:09;16.70;;;3.80;;
7128;SDS011;3606;52.930;8.644;2023-11-19T14:33:34;14.10;;;4.13;;
7128;SDS011;3606;52.930;8.644;2023-11-19T14:36:01;13.93;;;4.07;;
7128;SDS011;3606;52.930;8.644;2023-11-19T14:38:27;16.30;;;4.57;;
7128;SDS011;3606;52.930;8.644;2023-11-19T14:40:52;23.40;;;4.47;;
7128;SDS011;3606;52.930;8.644;2023-11-19T14:43:18;11.80;;;3.57;;
7128;SDS011;3606;52.930;8.644;2023-11-19T14:45:43;15.50;;;4.43;;
7128;SDS011;3606;52.930;8.644;2023-11-19T14:48:09;18.70;;;4.83;;
7128;SDS011;3606;52.930;8.644;2023-11-19T14:50:35;18.87;;;4.50;;
7128;SDS011;3606;52.930;8.644;2023-11-19T14:53:01;15.17;;;4.77;;
7128;SDS011;3606;52.930;8.644;2023-11-19T14:55:27;21.57;;;4.97;;
7128;SDS011;3606;52.930;8.644;2023-11-19T14:57:52;19.77;;;4.60;;
7128;SDS011;3606;52.930;8.644;2023-11-19T15:00:18;28.67;;;5.43;;
7128;SDS011;3606;52.930;8.644;2023-11-19T15:02:44;22.53;;;6.10;;
7128;SDS011;3606;52.930;8.644;2023-11-19T15:05:10;23.00;;;6.53;;
7128;SDS011;3606;52.930;8.644;2023-11-19T15:07:36;23.50;;;6.53;;
7128;SDS011;3606;52.930;8.644;2023-11-19T15:10:02;23.80;;;5.23;;
7128;SDS011;3606;52.930;8.644;2023-11-19T15:12:28;24.03;;;6.00;;
7128;SDS011;3606;52.930;8.644;2023-11-19T15:14:54;34.33;;;6.80;;
7128;SDS011;3606;52.930;8.644;2023-11-19T15:17:20;26.13;;;6.17;;
7128;SDS011;3606;52.930;8.644;2023-11-19T15:19:46;26.07;;;5.17;;
7128;SDS011;3606;52.930;8.644;2023-11-19T15:22:12;26.13;;;5.37;;
7128;SDS011;3606;52.930;8.644;2023-11-19T15:24:38;22.43;;;4.93;;
7128;SDS011;3606;52.930;8.644;2023-11-19T15:27:06;21.57;;;5.63;;
7128;SDS011;3606;52.930;8.644;2023-11-19T15:29:34;19.77;;;5.73;;